Terminal Aerodrome Forecast
Issued by NWS Jacksonville, FL

Home | Current Version | Previous Version | Text Only | Print | Product List | Glossary On
Versions: 1 2 3 4 5 6 7 8 9 10 11 12 13 14 15
155
FTUS42 KJAX 221756
TAFJAX
TAF
KJAX 221756Z 2218/2318 07013G20KT P6SM VCSH BKN030 BKN060
     FM230100 06006KT P6SM VCSH SCT020 BKN035 BKN070
     FM230500 03003KT P6SM VCSH SCT020 BKN070
     FM231400 06010G15KT 5SM SHRA BR BKN025 OVC060=

USA.gov is the U.S. government's official web portal to all federal, state and local government web resources and services.